Time,TemperatureF,DewpointF,PressureIn,WindDirection,WindDirectionDegrees,WindSpeedMPH,WindSpeedGustMPH,Humidity,HourlyPrecipIn,Conditions,Clouds,dailyrainin,SoftwareType,DateUTC
2013-10-25 00:02:00,62.2,15.4,29.96,NNE,22,0.0,2.2,16,0.00,SKC,,0.00,darkweather v1.19,2013-10-25 07:02:00,
2013-10-25 00:11:00,62.1,15.3,29.96,NNE,22,0.0,0.0,16,0.00,SKC,,0.00,darkweather v1.19,2013-10-25 07:11:00,
2013-10-25 00:20:00,62.1,15.3,29.96,NNE,22,0.0,0.0,16,0.00,SKC,,0.00,darkweather v1.19,2013-10-25 07:20:00,
2013-10-25 00:25:00,62.2,15.4,29.96,NNE,22,0.0,0.0,16,0.00,SKC,,0.00,darkweather v1.19,2013-10-25 07:25:00,
2013-10-25 00:30:00,61.7,15.0,29.96,NNE,22,0.0,0.0,16,0.00,SKC,,0.00,darkweather v1.19,2013-10-25 07:30:00,
2013-10-25 00:37:00,61.5,14.8,29.96,NNE,22,0.0,0.0,16,0.00,SKC,,0.00,darkweather v1.19,2013-10-25 07:37:00,
2013-10-25 00:43:00,61.3,14.7,29.96,NNE,22,0.0,0.0,16,0.00,SKC,,0.00,darkweather v1.19,2013-10-25 07:43:00,
2013-10-25 00:52:00,61.3,14.7,29.96,NNE,22,0.0,0.0,16,0.00,SKC,,0.00,darkweather v1.19,2013-10-25 07:52:00,
2013-10-25 01:00:00,61.7,15.0,29.99,NNE,22,0.0,0.0,16,0.00,SKC,,0.00,darkweather v1.19,2013-10-25 08:00:00,
2013-10-25 01:06:00,61.9,15.1,29.99,NNE,22,0.0,2.2,16,0.00,SKC,,0.00,darkweather v1.19,2013-10-25 08:06:00,
2013-10-25 01:15:00,61.7,15.0,29.99,NNE,22,0.0,0.0,16,0.00,SKC,,0.00,darkweather v1.19,2013-10-25 08:15:00,
2013-10-25 01:20:00,61.7,15.0,29.96,NNE,22,0.0,0.0,16,0.00,SKC,,0.00,darkweather v1.19,2013-10-25 08:20:00,
2013-10-25 01:25:00,61.7,15.0,29.96,NNE,22,0.0,2.2,16,0.00,SKC,,0.00,darkweather v1.19,2013-10-25 08:25:00,
2013-10-25 01:30:00,61.3,14.7,29.96,NNE,22,0.0,0.0,16,0.00,SKC,,0.00,darkweather v1.19,2013-10-25 08:30:00,
2013-10-25 01:35:00,60.6,15.5,29.99,NNE,22,0.0,0.0,17,0.00,SKC,,0.00,darkweather v1.19,2013-10-25 08:35:00,
2013-10-25 01:41:00,58.5,13.7,29.99,NNE,22,0.0,0.0,17,0.00,SKC,,0.00,darkweather v1.19,2013-10-25 08:41:00,
2013-10-25 01:48:00,57.9,13.3,29.99,NNE,22,0.0,0.0,17,0.00,SKC,,0.00,darkweather v1.19,2013-10-25 08:48:00,
2013-10-25 01:54:00,58.5,13.7,29.99,NNE,22,0.0,0.0,17,0.00,SKC,,0.00,darkweather v1.19,2013-10-25 08:54:00,
2013-10-25 01:59:00,58.1,13.4,29.99,NNE,22,0.0,0.0,17,0.00,SKC,,0.00,darkweather v1.19,2013-10-25 08:59:00,
2013-10-25 02:05:00,57.6,13.0,29.99,NNE,22,0.0,0.0,17,0.00,SKC,,0.00,darkweather v1.19,2013-10-25 09:05:00,
2013-10-25 02:11:00,59.0,14.2,29.99,NNE,22,0.0,0.0,17,0.00,SKC,,0.00,darkweather v1.19,2013-10-25 09:11:00,
2013-10-25 02:17:00,59.5,14.6,29.99,NNE,22,0.0,0.0,17,0.00,SKC,,0.00,darkweather v1.19,2013-10-25 09:17:00,
2013-10-25 02:22:00,60.1,15.1,29.99,NNE,22,0.0,0.0,17,0.00,SKC,,0.00,darkweather v1.19,2013-10-25 09:22:00,
2013-10-25 02:28:00,60.6,15.5,29.99,NNE,23,0.0,0.0,17,0.00,SKC,,0.00,darkweather v1.19,2013-10-25 09:28:00,
2013-10-25 02:33:00,61.0,14.4,29.99,NNE,30,2.2,2.7,16,0.00,SKC,,0.00,darkweather v1.19,2013-10-25 09:33:00,
2013-10-25 02:39:00,61.0,14.4,29.99,NNE,30,0.0,2.2,16,0.00,SKC,,0.00,darkweather v1.19,2013-10-25 09:39:00,
2013-10-25 02:44:00,61.5,14.8,29.99,SE,130,2.7,2.7,16,0.00,SKC,,0.00,darkweather v1.19,2013-10-25 09:44:00,
2013-10-25 02:49:00,61.7,15.0,29.99,SE,127,2.7,2.7,16,0.00,SKC,,0.00,darkweather v1.19,2013-10-25 09:49:00,
2013-10-25 02:54:00,61.7,15.0,29.99,SE,124,0.0,3.1,16,0.00,SKC,,0.00,darkweather v1.19,2013-10-25 09:54:00,
2013-10-25 03:00:00,61.2,14.5,29.99,SE,125,0.0,0.0,16,0.00,SKC,,0.00,darkweather v1.19,2013-10-25 10:00:00,
2013-10-25 03:06:00,60.6,15.5,29.99,ESE,123,0.0,0.0,17,0.00,SKC,,0.00,darkweather v1.19,2013-10-25 10:06:00,
2013-10-25 03:12:00,59.9,14.9,29.99,ESE,123,0.0,0.0,17,0.00,SKC,,0.00,darkweather v1.19,2013-10-25 10:12:00,
2013-10-25 03:18:00,59.0,14.2,29.99,ESE,116,0.0,0.0,17,0.00,SKC,,0.00,darkweather v1.19,2013-10-25 10:18:00,
2013-10-25 03:23:00,58.8,14.0,29.99,ESE,106,2.2,2.2,17,0.00,SKC,,0.00,darkweather v1.19,2013-10-25 10:23:00,
2013-10-25 03:28:00,59.2,14.3,29.99,ESE,116,2.7,2.7,17,0.00,SKC,,0.00,darkweather v1.19,2013-10-25 10:28:00,
2013-10-25 03:34:00,59.4,14.5,29.96,ESE,117,0.0,0.0,17,0.00,SKC,,0.00,darkweather v1.19,2013-10-25 10:34:00,
2013-10-25 03:41:00,59.4,14.5,29.96,ESE,117,0.0,2.7,17,0.00,SKC,,0.00,darkweather v1.19,2013-10-25 10:41:00,
2013-10-25 03:46:00,59.4,14.5,29.99,ESE,122,3.1,3.6,17,0.00,SKC,,0.00,darkweather v1.19,2013-10-25 10:46:00,
2013-10-25 03:52:00,59.4,14.5,29.99,ESE,108,0.0,2.7,17,0.00,SKC,,0.00,darkweather v1.19,2013-10-25 10:52:00,
2013-10-25 03:59:00,59.4,14.5,29.99,ESE,108,0.0,2.2,17,0.00,SKC,,0.00,darkweather v1.19,2013-10-25 10:59:00,
2013-10-25 04:05:00,59.2,14.3,29.99,ESE,108,0.0,2.2,17,0.00,SKC,,0.00,darkweather v1.19,2013-10-25 11:05:00,
2013-10-25 04:11:00,59.4,14.5,29.99,ESE,108,0.0,0.0,17,0.00,SKC,,0.00,darkweather v1.19,2013-10-25 11:11:00,
2013-10-25 04:17:00,59.0,14.2,29.99,ESE,108,0.0,0.0,17,0.00,SKC,,0.00,darkweather v1.19,2013-10-25 11:17:00,
2013-10-25 04:22:00,59.0,14.2,29.99,ESE,109,2.7,2.7,17,0.00,SKC,,0.00,darkweather v1.19,2013-10-25 11:22:00,
2013-10-25 04:27:00,58.8,14.0,29.99,ESE,110,2.2,3.1,17,0.00,SKC,,0.00,darkweather v1.19,2013-10-25 11:27:00,
2013-10-25 04:33:00,59.2,14.3,29.99,ESE,111,2.2,2.2,17,0.00,SKC,,0.00,darkweather v1.19,2013-10-25 11:33:00,
2013-10-25 04:38:00,59.4,14.5,29.99,ESE,111,0.0,2.2,17,0.00,SKC,,0.00,darkweather v1.19,2013-10-25 11:38:00,
2013-10-25 04:43:00,59.9,14.9,29.99,SE,134,3.1,3.1,17,0.00,SKC,,0.00,darkweather v1.19,2013-10-25 11:43:00,
2013-10-25 04:48:00,60.1,15.1,29.99,SE,124,0.0,2.7,17,0.00,SKC,,0.00,darkweather v1.19,2013-10-25 11:48:00,
2013-10-25 04:53:00,59.9,14.9,29.99,SE,124,0.0,0.0,17,0.00,SKC,,0.00,darkweather v1.19,2013-10-25 11:53:00,
2013-10-25 05:00:00,59.4,14.5,29.99,SE,124,0.0,0.0,17,0.00,SKC,,0.00,darkweather v1.19,2013-10-25 12:00:00,
2013-10-25 05:05:00,59.0,14.2,29.99,SE,124,0.0,0.0,17,0.00,SKC,,0.00,darkweather v1.19,2013-10-25 12:05:00,
2013-10-25 05:11:00,58.6,13.9,29.99,SE,124,0.0,0.0,17,0.00,SKC,,0.00,darkweather v1.19,2013-10-25 12:11:00,
2013-10-25 05:18:00,58.3,13.6,29.99,SE,124,0.0,0.0,17,0.00,SKC,,0.00,darkweather v1.19,2013-10-25 12:18:00,
2013-10-25 05:30:00,58.1,13.4,29.99,SE,124,0.0,0.0,17,0.00,SKC,,0.00,darkweather v1.19,2013-10-25 12:30:00,
2013-10-25 05:36:00,57.4,12.9,29.99,SE,124,0.0,0.0,17,0.00,SKC,,0.00,darkweather v1.19,2013-10-25 12:36:00,
2013-10-25 05:45:00,57.0,12.6,29.99,SE,124,0.0,0.0,17,0.00,SKC,,0.00,darkweather v1.19,2013-10-25 12:45:00,
2013-10-25 05:51:00,56.5,12.1,29.99,SE,124,0.0,0.0,17,0.00,SKC,,0.00,darkweather v1.19,2013-10-25 12:51:00,
2013-10-25 05:56:00,55.8,11.5,29.99,ESE,113,0.0,0.0,17,0.00,SKC,,0.00,darkweather v1.19,2013-10-25 12:56:00,
2013-10-25 06:02:00,54.3,11.6,29.99,ESE,113,0.0,0.0,18,0.00,SKC,,0.00,darkweather v1.19,2013-10-25 13:02:00,
2013-10-25 06:07:00,53.6,11.0,29.99,ESE,104,0.0,0.0,18,0.00,SKC,,0.00,darkweather v1.19,2013-10-25 13:07:00,
2013-10-25 06:13:00,53.1,10.6,29.99,East,92,0.0,0.0,18,0.00,SKC,,0.00,darkweather v1.19,2013-10-25 13:13:00,
2013-10-25 06:18:00,55.2,12.4,30.02,East,100,0.0,0.0,18,0.00,SKC,,0.00,darkweather v1.19,2013-10-25 13:18:00,
2013-10-25 06:23:00,57.9,13.3,30.02,ESE,120,3.6,4.9,17,0.00,SKC,,0.00,darkweather v1.19,2013-10-25 13:23:00,
2013-10-25 06:28:00,59.0,14.2,30.02,SSE,148,4.5,4.5,17,0.00,SKC,,0.00,darkweather v1.19,2013-10-25 13:28:00,
2013-10-25 06:33:00,59.2,14.3,30.02,SE,131,2.7,3.1,17,0.00,SKC,,0.00,darkweather v1.19,2013-10-25 13:33:00,
2013-10-25 06:38:00,59.4,14.5,30.02,SE,138,3.1,3.1,17,0.00,SKC,,0.00,darkweather v1.19,2013-10-25 13:38:00,
2013-10-25 06:43:00,59.2,14.3,30.02,SE,130,2.2,3.1,17,0.00,SKC,,0.00,darkweather v1.19,2013-10-25 13:43:00,
2013-10-25 06:48:00,59.7,14.8,30.02,ESE,103,3.6,3.6,17,0.00,SKC,,0.00,darkweather v1.19,2013-10-25 13:48:00,
2013-10-25 06:53:00,60.3,15.2,30.02,ESE,103,2.2,2.2,17,0.00,SKC,,0.00,darkweather v1.19,2013-10-25 13:53:00,
2013-10-25 06:58:00,60.4,15.4,30.02,East,92,2.2,2.7,17,0.00,SKC,,0.00,darkweather v1.19,2013-10-25 13:58:00,
2013-10-25 07:04:00,59.7,14.8,29.99,ENE,63,2.2,2.2,17,0.00,SKC,,0.00,darkweather v1.19,2013-10-25 14:04:00,
2013-10-25 07:09:00,60.6,15.5,29.99,ENE,78,0.0,2.7,17,0.00,SKC,,0.00,darkweather v1.19,2013-10-25 14:09:00,
2013-10-25 07:14:00,61.7,15.0,29.99,ENE,78,0.0,0.0,16,0.00,SKC,,0.00,darkweather v1.19,2013-10-25 14:14:00,
2013-10-25 07:19:00,61.5,14.8,30.02,ENE,78,0.0,0.0,16,0.00,SKC,,0.00,darkweather v1.19,2013-10-25 14:19:00,
2013-10-25 07:26:00,60.4,15.4,30.02,ENE,78,0.0,0.0,17,0.00,SKC,,0.00,darkweather v1.19,2013-10-25 14:26:00,
2013-10-25 07:31:00,61.0,14.4,30.02,ENE,78,0.0,0.0,16,0.00,SKC,,0.00,darkweather v1.19,2013-10-25 14:31:00,
2013-10-25 07:36:00,62.2,15.4,30.02,East,89,3.1,3.1,16,0.00,SKC,,0.00,darkweather v1.19,2013-10-25 14:36:00,
2013-10-25 07:42:00,62.4,15.6,30.02,ENE,78,0.0,0.0,16,0.00,SKC,,0.00,darkweather v1.19,2013-10-25 14:42:00,
2013-10-25 07:47:00,61.5,14.8,30.02,NE,41,0.0,0.0,16,0.00,SKC,,0.00,darkweather v1.19,2013-10-25 14:47:00,
2013-10-25 07:52:00,60.8,14.3,30.02,North,8,0.0,0.0,16,0.00,SKC,,0.00,darkweather v1.19,2013-10-25 14:52:00,
2013-10-25 07:57:00,61.9,15.1,30.02,North,8,0.0,0.0,16,0.00,SKC,,0.00,darkweather v1.19,2013-10-25 14:57:00,
2013-10-25 08:02:00,62.4,15.6,30.05,North,9,0.0,0.0,16,0.00,SKC,,0.00,darkweather v1.19,2013-10-25 15:02:00,
2013-10-25 08:07:00,63.9,16.7,30.05,ENE,78,3.1,3.6,16,0.00,SKC,,0.00,darkweather v1.19,2013-10-25 15:07:00,
2013-10-25 08:12:00,64.0,16.9,30.05,East,91,3.6,3.6,16,0.00,SKC,,0.00,darkweather v1.19,2013-10-25 15:12:00,
2013-10-25 08:18:00,64.8,16.0,30.05,ESE,109,4.0,4.0,15,0.00,SKC,,0.00,darkweather v1.19,2013-10-25 15:18:00,
2013-10-25 08:23:00,65.3,16.4,30.05,East,95,4.0,4.0,15,0.00,SKC,,0.00,darkweather v1.19,2013-10-25 15:23:00,
2013-10-25 08:28:00,66.0,17.0,30.05,SE,126,2.7,2.7,15,0.00,SKC,,0.00,darkweather v1.19,2013-10-25 15:28:00,
2013-10-25 08:33:00,66.6,17.4,30.05,SE,133,2.2,2.7,15,0.00,SKC,,0.00,darkweather v1.19,2013-10-25 15:33:00,
2013-10-25 08:38:00,66.9,17.7,30.05,ESE,114,4.0,0.0,15,0.00,SKC,,0.00,darkweather v1.19,2013-10-25 15:38:00,
2013-10-25 08:43:00,68.2,18.7,30.05,East,96,3.1,0.0,15,0.00,SKC,,0.00,darkweather v1.19,2013-10-25 15:43:00,
2013-10-25 08:48:00,69.1,19.4,30.05,East,97,0.0,0.0,15,0.00,SKC,,0.00,darkweather v1.19,2013-10-25 15:48:00,
2013-10-25 08:54:00,69.8,18.4,30.05,East,98,0.0,0.0,14,0.00,SKC,,0.00,darkweather v1.19,2013-10-25 15:54:00,
2013-10-25 08:59:00,70.3,18.8,30.05,East,95,0.0,2.7,14,0.00,SKC,,0.00,darkweather v1.19,2013-10-25 15:59:00,
2013-10-25 09:04:00,69.8,18.4,30.05,SE,137,3.1,3.1,14,0.00,SKC,,0.00,darkweather v1.19,2013-10-25 16:04:00,
2013-10-25 09:09:00,70.9,19.3,30.05,ESE,115,0.0,0.0,14,0.00,SKC,,0.00,darkweather v1.19,2013-10-25 16:09:00,
2013-10-25 09:15:00,71.2,19.5,30.05,SE,130,0.0,0.0,14,0.00,SKC,,0.00,darkweather v1.19,2013-10-25 16:15:00,
2013-10-25 09:20:00,72.3,20.4,30.05,SE,125,0.0,0.0,14,0.00,SKC,,0.00,darkweather v1.19,2013-10-25 16:20:00,
2013-10-25 09:26:00,73.2,21.1,30.05,SE,125,0.0,0.0,14,0.00,SKC,,0.00,darkweather v1.19,2013-10-25 16:26:00,
2013-10-25 09:31:00,74.5,20.4,30.05,SE,130,0.0,0.0,13,0.00,SKC,,0.00,darkweather v1.19,2013-10-25 16:31:00,
2013-10-25 09:37:00,75.7,21.4,30.05,SE,139,0.0,0.0,13,0.00,SKC,,0.00,darkweather v1.19,2013-10-25 16:37:00,
2013-10-25 09:42:00,74.8,20.7,30.05,SE,130,0.0,0.0,13,0.00,SKC,,0.00,darkweather v1.19,2013-10-25 16:42:00,
2013-10-25 09:47:00,76.1,21.6,30.05,SE,125,0.0,0.0,13,0.00,SKC,,0.00,darkweather v1.19,2013-10-25 16:47:00,
2013-10-25 09:52:00,77.0,22.4,30.05,SSE,162,3.1,3.6,13,0.00,SKC,,0.00,darkweather v1.19,2013-10-25 16:52:00,
2013-10-25 09:58:00,76.1,21.6,30.05,SE,146,0.0,0.0,13,0.00,SKC,,0.00,darkweather v1.19,2013-10-25 16:58:00,
2013-10-25 10:03:00,77.0,22.4,30.05,SE,144,0.0,0.0,13,0.00,SKC,,0.00,darkweather v1.19,2013-10-25 17:03:00,
2013-10-25 10:08:00,78.1,23.2,30.05,SE,144,0.0,0.0,13,0.00,SKC,,0.00,darkweather v1.19,2013-10-25 17:08:00,
2013-10-25 10:14:00,79.0,22.0,30.05,SSW,193,0.0,2.2,12,0.00,SKC,,0.00,darkweather v1.19,2013-10-25 17:14:00,
2013-10-25 10:21:00,79.2,22.1,30.05,South,171,0.0,0.0,12,0.00,SKC,,0.00,darkweather v1.19,2013-10-25 17:21:00,
2013-10-25 10:26:00,79.7,22.6,30.05,WNW,295,0.0,2.2,12,0.00,SKC,,0.00,darkweather v1.19,2013-10-25 17:26:00,
2013-10-25 10:32:00,79.9,22.7,30.05,West,281,0.0,0.0,12,0.00,SKC,,0.00,darkweather v1.19,2013-10-25 17:32:00,
2013-10-25 10:38:00,80.2,23.0,30.05,NNW,330,0.0,3.1,12,0.00,SKC,,0.00,darkweather v1.19,2013-10-25 17:38:00,
2013-10-25 10:43:00,78.4,23.5,30.05,NNW,331,0.0,0.0,13,0.00,SKC,,0.00,darkweather v1.19,2013-10-25 17:43:00,
2013-10-25 10:48:00,78.8,21.9,30.05,WNW,296,0.0,0.0,12,0.00,SKC,,0.00,darkweather v1.19,2013-10-25 17:48:00,
2013-10-25 10:53:00,80.2,23.0,30.05,WNW,282,0.0,2.7,12,0.00,SKC,,0.00,darkweather v1.19,2013-10-25 17:53:00,
2013-10-25 10:59:00,80.6,23.3,30.05,West,281,0.0,0.0,12,0.00,SKC,,0.00,darkweather v1.19,2013-10-25 17:59:00,
2013-10-25 11:04:00,81.7,24.1,30.05,West,281,0.0,0.0,12,0.00,SKC,,0.00,darkweather v1.19,2013-10-25 18:04:00,
2013-10-25 11:09:00,82.2,24.5,30.05,West,279,0.0,3.1,12,0.00,SKC,,0.00,darkweather v1.19,2013-10-25 18:09:00,
2013-10-25 11:15:00,82.4,22.6,30.05,West,279,0.0,0.0,11,0.00,SKC,,0.00,darkweather v1.19,2013-10-25 18:15:00,
2013-10-25 11:21:00,83.5,23.4,30.05,West,279,0.0,0.0,11,0.00,SKC,,0.00,darkweather v1.19,2013-10-25 18:21:00,
2013-10-25 11:26:00,83.5,23.4,30.05,West,279,2.2,0.0,11,0.00,SKC,,0.00,darkweather v1.19,2013-10-25 18:26:00,
2013-10-25 11:32:00,83.8,23.7,30.05,NW,304,0.0,0.0,11,0.00,SKC,,0.00,darkweather v1.19,2013-10-25 18:32:00,
2013-10-25 11:37:00,82.2,24.5,30.05,WNW,296,0.0,0.0,12,0.00,SKC,,0.00,darkweather v1.19,2013-10-25 18:37:00,
2013-10-25 11:42:00,80.8,23.4,30.05,NNW,329,3.6,3.6,12,0.00,SKC,,0.00,darkweather v1.19,2013-10-25 18:42:00,
2013-10-25 11:47:00,81.0,23.5,30.05,WNW,283,3.6,3.6,12,0.00,SKC,,0.00,darkweather v1.19,2013-10-25 18:47:00,
2013-10-25 11:52:00,81.1,23.7,30.05,NNW,338,4.0,4.0,12,0.00,SKC,,0.00,darkweather v1.19,2013-10-25 18:52:00,
2013-10-25 11:57:00,81.3,23.8,30.05,NNW,331,0.0,2.7,12,0.00,SKC,,0.00,darkweather v1.19,2013-10-25 18:57:00,
2013-10-25 12:02:00,82.2,24.5,30.05,NW,305,0.0,0.0,12,0.00,SKC,,0.00,darkweather v1.19,2013-10-25 19:02:00,
2013-10-25 12:07:00,82.9,23.0,30.05,WNW,291,0.0,0.0,11,0.00,SKC,,0.00,darkweather v1.19,2013-10-25 19:07:00,
2013-10-25 12:13:00,83.8,23.7,30.05,WNW,290,0.0,2.2,11,0.00,SKC,,0.00,darkweather v1.19,2013-10-25 19:13:00,
2013-10-25 12:18:00,82.8,22.9,30.05,WNW,301,4.5,4.5,11,0.00,SKC,,0.00,darkweather v1.19,2013-10-25 19:18:00,
2013-10-25 12:23:00,83.7,23.6,30.05,WNW,298,0.0,0.0,11,0.00,SKC,,0.00,darkweather v1.19,2013-10-25 19:23:00,
2013-10-25 12:28:00,84.0,23.8,30.05,NW,322,0.0,3.6,11,0.00,SKC,,0.00,darkweather v1.19,2013-10-25 19:28:00,
2013-10-25 12:33:00,84.6,24.2,30.02,WNW,296,0.0,3.1,11,0.00,SKC,,0.00,darkweather v1.19,2013-10-25 19:33:00,
2013-10-25 12:38:00,83.7,23.6,30.02,NW,311,4.9,0.0,11,0.00,SKC,,0.00,darkweather v1.19,2013-10-25 19:38:00,
2013-10-25 12:43:00,83.5,23.4,30.02,West,267,2.2,2.2,11,0.00,SKC,,0.00,darkweather v1.19,2013-10-25 19:43:00,
2013-10-25 12:48:00,84.7,24.4,30.02,NW,304,0.0,2.2,11,0.00,SKC,,0.00,darkweather v1.19,2013-10-25 19:48:00,
2013-10-25 12:53:00,83.8,23.7,30.02,NW,318,4.5,4.5,11,0.00,SKC,,0.00,darkweather v1.19,2013-10-25 19:53:00,
2013-10-25 12:58:00,85.3,24.8,30.02,WNW,288,0.0,2.7,11,0.00,SKC,,0.00,darkweather v1.19,2013-10-25 19:58:00,
2013-10-25 13:03:00,85.3,24.8,30.02,WSW,245,2.2,4.9,11,0.00,SKC,,0.00,darkweather v1.19,2013-10-25 20:03:00,
2013-10-25 13:08:00,84.7,24.4,30.02,NW,307,4.0,5.4,11,0.00,SKC,,0.00,darkweather v1.19,2013-10-25 20:08:00,
2013-10-25 13:14:00,85.8,29.3,30.02,NW,304,0.0,3.1,13,0.00,SKC,,0.00,darkweather v1.19,2013-10-25 20:14:00,
2013-10-25 13:19:00,85.8,29.3,29.99,WNW,292,2.7,0.0,13,0.00,OVC,,0.00,darkweather v1.19,2013-10-25 20:19:00,
2013-10-25 13:24:00,85.3,28.8,29.99,WNW,297,4.0,4.0,13,0.00,OVC,,0.00,darkweather v1.19,2013-10-25 20:24:00,
2013-10-25 13:29:00,86.0,29.4,29.99,SSW,213,0.0,6.3,13,0.00,OVC,,0.00,darkweather v1.19,2013-10-25 20:29:00,
2013-10-25 13:34:00,85.8,29.3,29.99,WSW,254,2.7,0.0,13,0.00,OVC,,0.00,darkweather v1.19,2013-10-25 20:34:00,
2013-10-25 13:39:00,86.4,29.7,29.99,WNW,299,0.0,6.7,13,0.00,OVC,,0.00,darkweather v1.19,2013-10-25 20:39:00,
2013-10-25 13:44:00,85.8,29.3,29.99,NW,305,2.2,0.0,13,0.00,OVC,,0.00,darkweather v1.19,2013-10-25 20:44:00,
2013-10-25 13:49:00,85.8,29.3,29.99,WNW,293,0.0,5.4,13,0.00,OVC,,0.00,darkweather v1.19,2013-10-25 20:49:00,
2013-10-25 13:55:00,86.0,29.4,29.99,SW,225,2.7,2.7,13,0.00,OVC,,0.00,darkweather v1.19,2013-10-25 20:55:00,
2013-10-25 14:00:00,85.8,29.3,29.99,NW,310,2.2,2.7,13,0.00,OVC,,0.00,darkweather v1.19,2013-10-25 21:00:00,
2013-10-25 14:05:00,85.8,29.3,29.99,NNW,328,4.0,0.0,13,0.00,OVC,,0.00,darkweather v1.19,2013-10-25 21:05:00,
2013-10-25 14:10:00,86.7,30.0,29.99,WNW,288,3.1,5.4,13,0.00,OVC,,0.00,darkweather v1.19,2013-10-25 21:10:00,
2013-10-25 14:15:00,86.7,30.0,29.99,NW,322,2.7,3.1,13,0.00,OVC,,0.00,darkweather v1.19,2013-10-25 21:15:00,
2013-10-25 14:20:00,86.9,30.1,29.99,West,268,2.7,3.6,13,0.00,OVC,,0.00,darkweather v1.19,2013-10-25 21:20:00,
2013-10-25 14:25:00,85.8,29.3,29.99,WNW,294,3.6,7.6,13,0.00,OVC,,0.00,darkweather v1.19,2013-10-25 21:25:00,
2013-10-25 14:30:00,85.6,29.1,29.99,NNW,332,4.5,4.5,13,0.00,OVC,,0.00,darkweather v1.19,2013-10-25 21:30:00,
2013-10-25 14:35:00,86.9,30.1,29.99,WNW,292,2.2,0.0,13,0.00,OVC,,0.00,darkweather v1.19,2013-10-25 21:35:00,
2013-10-25 14:40:00,87.3,30.4,29.99,WNW,297,3.1,5.4,13,0.00,OVC,,0.00,darkweather v1.19,2013-10-25 21:40:00,
2013-10-25 14:45:00,86.0,29.4,29.99,West,281,6.3,6.3,13,0.00,OVC,,0.00,darkweather v1.19,2013-10-25 21:45:00,
2013-10-25 14:50:00,86.2,29.6,29.99,NW,304,3.6,4.0,13,0.00,OVC,,0.00,darkweather v1.19,2013-10-25 21:50:00,
2013-10-25 14:56:00,86.0,29.4,29.99,NW,308,6.3,6.3,13,0.00,OVC,,0.00,darkweather v1.19,2013-10-25 21:56:00,
2013-10-25 15:01:00,86.7,30.0,29.96,WNW,294,0.0,0.0,13,0.00,OVC,,0.00,darkweather v1.19,2013-10-25 22:01:00,
2013-10-25 15:06:00,85.8,29.3,29.96,NW,307,5.4,8.1,13,0.00,OVC,,0.00,darkweather v1.19,2013-10-25 22:06:00,
2013-10-25 15:11:00,85.5,29.0,29.96,NW,324,5.4,5.8,13,0.00,OVC,,0.00,darkweather v1.19,2013-10-25 22:11:00,
2013-10-25 15:16:00,86.7,30.0,29.96,WNW,294,0.0,3.1,13,0.00,OVC,,0.00,darkweather v1.19,2013-10-25 22:16:00,
2013-10-25 15:21:00,86.5,29.8,29.96,NW,313,5.4,5.4,13,0.00,OVC,,0.00,darkweather v1.19,2013-10-25 22:21:00,
2013-10-25 15:26:00,87.1,30.3,29.96,NW,312,0.0,3.1,13,0.00,OVC,,0.00,darkweather v1.19,2013-10-25 22:26:00,
2013-10-25 15:31:00,87.1,30.3,29.96,WNW,290,4.5,4.5,13,0.00,OVC,,0.00,darkweather v1.19,2013-10-25 22:31:00,
2013-10-25 15:36:00,87.3,30.4,29.96,WNW,296,4.5,6.3,13,0.00,OVC,,0.00,darkweather v1.19,2013-10-25 22:36:00,
2013-10-25 15:41:00,87.1,30.3,29.96,WNW,291,3.6,5.4,13,0.00,OVC,,0.00,darkweather v1.19,2013-10-25 22:41:00,
2013-10-25 15:46:00,86.5,29.8,29.96,WNW,290,3.1,3.1,13,0.00,OVC,,0.00,darkweather v1.19,2013-10-25 22:46:00,
2013-10-25 15:52:00,86.9,30.1,29.96,NW,308,2.7,3.6,13,0.00,OVC,,0.00,darkweather v1.19,2013-10-25 22:52:00,
2013-10-25 15:57:00,86.5,29.8,29.96,WNW,298,4.0,4.5,13,0.00,OVC,,0.00,darkweather v1.19,2013-10-25 22:57:00,
2013-10-25 16:02:00,87.1,30.3,29.96,West,275,3.1,4.0,13,0.00,OVC,,0.00,darkweather v1.19,2013-10-25 23:02:00,
2013-10-25 16:07:00,86.5,29.8,29.96,West,280,5.8,5.8,13,0.00,OVC,,0.00,darkweather v1.19,2013-10-25 23:07:00,
2013-10-25 16:12:00,87.6,30.7,29.96,WSW,244,2.7,0.0,13,0.00,OVC,,0.00,darkweather v1.19,2013-10-25 23:12:00,
2013-10-25 16:17:00,87.6,30.7,29.96,WNW,296,3.1,4.0,13,0.00,OVC,,0.00,darkweather v1.19,2013-10-25 23:17:00,
2013-10-25 16:22:00,87.1,30.3,29.96,WNW,302,4.0,4.0,13,0.00,OVC,,0.00,darkweather v1.19,2013-10-25 23:22:00,
2013-10-25 16:27:00,86.9,30.1,29.96,NW,305,4.0,4.0,13,0.00,OVC,,0.00,darkweather v1.19,2013-10-25 23:27:00,
2013-10-25 16:32:00,87.4,30.5,29.96,NW,308,2.7,0.0,13,0.00,OVC,,0.00,darkweather v1.19,2013-10-25 23:32:00,
2013-10-25 16:37:00,87.1,30.3,29.96,WNW,295,4.5,4.5,13,0.00,OVC,,0.00,darkweather v1.19,2013-10-25 23:37:00,
2013-10-25 16:42:00,87.6,30.7,29.96,WNW,300,0.0,2.7,13,0.00,OVC,,0.00,darkweather v1.19,2013-10-25 23:42:00,
2013-10-25 16:47:00,87.3,30.4,29.96,WNW,289,3.6,3.6,13,0.00,OVC,,0.00,darkweather v1.19,2013-10-25 23:47:00,
2013-10-25 16:53:00,87.1,30.3,29.96,WNW,295,2.2,0.0,13,0.00,OVC,,0.00,darkweather v1.19,2013-10-25 23:53:00,
2013-10-25 16:58:00,86.9,30.1,29.96,NW,310,2.2,2.7,13,0.00,OVC,,0.00,darkweather v1.19,2013-10-25 23:58:00,
2013-10-25 17:03:00,86.4,29.7,29.96,WNW,294,2.7,3.6,13,0.00,OVC,,0.00,darkweather v1.19,2013-10-26 00:03:00,
2013-10-25 17:08:00,86.2,29.6,29.96,WNW,299,3.1,4.9,13,0.00,OVC,,0.00,darkweather v1.19,2013-10-26 00:08:00,
2013-10-25 17:13:00,85.3,28.8,29.96,WNW,297,3.1,4.0,13,0.00,OVC,,0.00,darkweather v1.19,2013-10-26 00:13:00,
2013-10-25 17:18:00,84.9,28.6,29.96,NNW,333,3.1,3.1,13,0.00,OVC,,0.00,darkweather v1.19,2013-10-26 00:18:00,
2013-10-25 17:23:00,84.4,28.1,29.96,NW,310,4.0,4.0,13,0.00,OVC,,0.00,darkweather v1.19,2013-10-26 00:23:00,
2013-10-25 17:28:00,84.0,23.8,29.96,NW,316,2.2,2.7,11,0.00,OVC,,0.00,darkweather v1.19,2013-10-26 00:28:00,
2013-10-25 17:34:00,83.3,23.3,29.96,NW,316,0.0,0.0,11,0.00,OVC,,0.00,darkweather v1.19,2013-10-26 00:34:00,
2013-10-25 17:40:00,82.4,22.6,29.96,NW,316,0.0,0.0,11,0.00,OVC,,0.00,darkweather v1.19,2013-10-26 00:40:00,
2013-10-25 17:45:00,81.3,23.8,29.96,NW,316,0.0,0.0,12,0.00,OVC,,0.00,darkweather v1.19,2013-10-26 00:45:00,
2013-10-25 17:51:00,80.4,23.1,29.96,NW,316,0.0,0.0,12,0.00,OVC,,0.00,darkweather v1.19,2013-10-26 00:51:00,
2013-10-25 17:56:00,79.9,22.7,29.96,NW,316,0.0,0.0,12,0.00,OVC,,0.00,darkweather v1.19,2013-10-26 00:56:00,
2013-10-25 18:02:00,79.5,22.4,29.96,NW,316,0.0,0.0,12,0.00,OVC,,0.00,darkweather v1.19,2013-10-26 01:02:00,
2013-10-25 18:07:00,79.2,22.1,29.96,NW,316,0.0,0.0,12,0.00,OVC,,0.00,darkweather v1.19,2013-10-26 01:07:00,
2013-10-25 18:12:00,78.6,23.6,29.96,NW,316,0.0,0.0,13,0.00,OVC,,0.00,darkweather v1.19,2013-10-26 01:12:00,
2013-10-25 18:17:00,78.3,23.3,29.96,NW,316,0.0,0.0,13,0.00,OVC,,0.00,darkweather v1.19,2013-10-26 01:17:00,
2013-10-25 18:30:00,77.9,23.1,29.96,NW,316,0.0,0.0,13,0.00,OVC,,0.00,darkweather v1.19,2013-10-26 01:30:00,
2013-10-25 18:36:00,77.7,22.9,29.96,NW,316,0.0,0.0,13,0.00,OVC,,0.00,darkweather v1.19,2013-10-26 01:36:00,
2013-10-25 18:42:00,77.0,22.4,29.96,NW,316,0.0,0.0,13,0.00,OVC,,0.00,darkweather v1.19,2013-10-26 01:42:00,
2013-10-25 18:47:00,76.5,21.9,29.96,NW,316,0.0,0.0,13,0.00,OVC,,0.00,darkweather v1.19,2013-10-26 01:47:00,
2013-10-25 18:54:00,76.3,21.8,29.96,NW,316,0.0,0.0,13,0.00,OVC,,0.00,darkweather v1.19,2013-10-26 01:54:00,
2013-10-25 19:00:00,75.9,21.5,29.96,NW,316,0.0,0.0,13,0.00,OVC,,0.00,darkweather v1.19,2013-10-26 02:00:00,
2013-10-25 19:07:00,75.2,20.9,29.96,NW,316,0.0,0.0,13,0.00,OVC,,0.00,darkweather v1.19,2013-10-26 02:07:00,
2013-10-25 19:13:00,74.5,20.4,29.96,NW,316,0.0,0.0,13,0.00,OVC,,0.00,darkweather v1.19,2013-10-26 02:13:00,
2013-10-25 19:20:00,73.9,19.9,29.96,NW,316,0.0,0.0,13,0.00,OVC,,0.00,darkweather v1.19,2013-10-26 02:20:00,
2013-10-25 19:28:00,73.4,19.5,29.96,NW,316,0.0,0.0,13,0.00,OVC,,0.00,darkweather v1.19,2013-10-26 02:28:00,
2013-10-25 19:41:00,73.9,19.9,29.96,NW,316,0.0,0.0,13,0.00,OVC,,0.00,darkweather v1.19,2013-10-26 02:41:00,
2013-10-25 19:46:00,73.6,19.7,29.96,NW,316,0.0,0.0,13,0.00,OVC,,0.00,darkweather v1.19,2013-10-26 02:46:00,
2013-10-25 19:52:00,72.7,20.7,29.96,NW,316,0.0,0.0,14,0.00,OVC,,0.00,darkweather v1.19,2013-10-26 02:52:00,
2013-10-25 19:59:00,72.1,20.3,29.96,NW,316,0.0,0.0,14,0.00,OVC,,0.00,darkweather v1.19,2013-10-26 02:59:00,
2013-10-25 20:05:00,71.6,19.8,29.96,NW,317,0.0,0.0,14,0.00,OVC,,0.00,darkweather v1.19,2013-10-26 03:05:00,
2013-10-25 20:10:00,70.7,19.1,29.96,NW,316,0.0,0.0,14,0.00,OVC,,0.00,darkweather v1.19,2013-10-26 03:10:00,
2013-10-25 20:16:00,70.5,19.0,29.99,NW,316,0.0,0.0,14,0.00,OVC,,0.00,darkweather v1.19,2013-10-26 03:16:00,
2013-10-25 20:21:00,70.3,18.8,29.99,NW,316,0.0,0.0,14,0.00,OVC,,0.00,darkweather v1.19,2013-10-26 03:21:00,
2013-10-25 20:27:00,70.0,18.5,29.99,NW,316,0.0,0.0,14,0.00,OVC,,0.00,darkweather v1.19,2013-10-26 03:27:00,
2013-10-25 20:33:00,69.8,18.4,29.99,NW,316,0.0,0.0,14,0.00,OVC,,0.00,darkweather v1.19,2013-10-26 03:33:00,
2013-10-25 20:39:00,69.1,19.4,29.99,NW,316,0.0,0.0,15,0.00,OVC,,0.00,darkweather v1.19,2013-10-26 03:39:00,
2013-10-25 20:45:00,68.2,18.7,29.99,NW,316,0.0,0.0,15,0.00,OVC,,0.00,darkweather v1.19,2013-10-26 03:45:00,
2013-10-25 20:50:00,68.0,18.6,29.99,NW,317,0.0,0.0,15,0.00,OVC,,0.00,darkweather v1.19,2013-10-26 03:50:00,
2013-10-25 20:59:00,68.4,18.9,29.99,NW,316,0.0,0.0,15,0.00,OVC,,0.00,darkweather v1.19,2013-10-26 03:59:00,
2013-10-25 21:01:00,68.2,18.7,29.99,NW,317,0.0,0.0,15,0.00,OVC,,0.00,darkweather v1.19,2013-10-26 04:01:00,
2013-10-25 21:05:00,68.0,18.6,29.99,NW,316,0.0,0.0,15,0.00,OVC,,0.00,darkweather v1.19,2013-10-26 04:05:00,
2013-10-25 21:08:00,68.0,18.6,29.99,NW,316,0.0,0.0,15,0.00,OVC,,0.00,darkweather v1.19,2013-10-26 04:08:00,
2013-10-25 21:15:00,67.5,18.1,29.99,NW,316,0.0,0.0,15,0.00,OVC,,0.00,darkweather v1.19,2013-10-26 04:15:00,
2013-10-25 21:16:00,67.5,18.1,29.99,NW,317,0.0,0.0,15,0.00,OVC,,0.00,darkweather v1.19,2013-10-26 04:16:00,
2013-10-25 21:21:00,66.6,17.4,29.99,NW,317,0.0,0.0,15,0.00,OVC,,0.00,darkweather v1.19,2013-10-26 04:21:00,
2013-10-25 21:26:00,66.6,17.4,29.99,NW,316,0.0,0.0,15,0.00,OVC,,0.00,darkweather v1.19,2013-10-26 04:26:00,
2013-10-25 21:31:00,66.6,17.4,30.02,NW,317,0.0,0.0,15,0.00,OVC,,0.00,darkweather v1.19,2013-10-26 04:31:00,
2013-10-25 21:37:00,66.0,17.0,30.02,NW,316,0.0,0.0,15,0.00,OVC,,0.00,darkweather v1.19,2013-10-26 04:37:00,
2013-10-25 21:42:00,66.0,17.0,30.02,NW,316,0.0,0.0,15,0.00,OVC,,0.00,darkweather v1.19,2013-10-26 04:42:00,
2013-10-25 21:47:00,66.6,17.4,30.02,NW,317,0.0,0.0,15,0.00,OVC,,0.00,darkweather v1.19,2013-10-26 04:47:00,
2013-10-25 21:54:00,65.8,16.8,30.02,ESE,112,0.0,0.0,15,0.00,OVC,,0.00,darkweather v1.19,2013-10-26 04:54:00,
2013-10-25 22:00:00,65.5,16.5,30.02,ESE,112,0.0,0.0,15,0.00,OVC,,0.00,darkweather v1.19,2013-10-26 05:00:00,
2013-10-25 22:06:00,64.8,16.0,30.02,ESE,112,0.0,0.0,15,0.00,OVC,,0.00,darkweather v1.19,2013-10-26 05:06:00,
2013-10-25 22:16:00,64.4,15.7,29.99,ESE,112,0.0,0.0,15,0.00,OVC,,0.00,darkweather v1.19,2013-10-26 05:16:00,
2013-10-25 22:23:00,64.2,17.0,29.99,ESE,112,0.0,0.0,16,0.00,OVC,,0.00,darkweather v1.19,2013-10-26 05:23:00,
2013-10-25 22:28:00,64.4,15.7,29.99,ESE,112,0.0,0.0,15,0.00,OVC,,0.00,darkweather v1.19,2013-10-26 05:28:00,
2013-10-25 22:35:00,64.4,15.7,30.02,ESE,112,0.0,0.0,15,0.00,OVC,,0.00,darkweather v1.19,2013-10-26 05:35:00,
2013-10-25 22:40:00,64.6,15.8,30.02,ESE,112,0.0,0.0,15,0.00,OVC,,0.00,darkweather v1.19,2013-10-26 05:40:00,
2013-10-25 22:45:00,64.9,16.1,30.02,ESE,112,0.0,0.0,15,0.00,OVC,,0.00,darkweather v1.19,2013-10-26 05:45:00,
2013-10-25 22:51:00,64.8,16.0,30.02,ESE,107,0.0,0.0,15,0.00,OVC,,0.00,darkweather v1.19,2013-10-26 05:51:00,
2013-10-25 22:58:00,64.0,16.9,30.02,ESE,106,0.0,0.0,16,0.00,OVC,,0.00,darkweather v1.19,2013-10-26 05:58:00,
2013-10-25 23:07:00,62.4,15.6,30.02,ESE,104,0.0,0.0,16,0.00,OVC,,0.00,darkweather v1.19,2013-10-26 06:07:00,
2013-10-25 23:17:00,63.0,16.0,30.02,ESE,104,0.0,0.0,16,0.00,OVC,,0.00,darkweather v1.19,2013-10-26 06:17:00,
2013-10-25 23:23:00,62.6,15.7,30.02,ESE,103,0.0,0.0,16,0.00,OVC,,0.00,darkweather v1.19,2013-10-26 06:23:00,
2013-10-25 23:28:00,59.7,14.8,30.02,NNE,31,0.0,0.0,17,0.00,OVC,,0.00,darkweather v1.19,2013-10-26 06:28:00,
2013-10-25 23:34:00,59.2,14.3,30.02,NNE,32,0.0,0.0,17,0.00,OVC,,0.00,darkweather v1.19,2013-10-26 06:34:00,
2013-10-25 23:39:00,59.0,14.2,30.02,NNE,32,0.0,0.0,17,0.00,OVC,,0.00,darkweather v1.19,2013-10-26 06:39:00,
2013-10-25 23:45:00,58.5,13.7,30.02,NNE,32,0.0,0.0,17,0.00,OVC,,0.00,darkweather v1.19,2013-10-26 06:45:00,
2013-10-25 23:50:00,57.6,13.0,30.02,NNE,31,0.0,0.0,17,0.00,OVC,,0.00,darkweather v1.19,2013-10-26 06:50:00,
2013-10-25 23:56:00,57.9,13.3,30.02,NNE,31,0.0,0.0,17,0.00,OVC,,0.00,darkweather v1.19,2013-10-26 06:56:00,